sensor_id;sensor_type;location;lat;lon;timestamp;temperature;humidity
1578;DHT22;57623;53.608;10.004;2023-07-13T00:00:58;16.40;99.90
1578;DHT22;57623;53.608;10.004;2023-07-13T00:03:26;16.40;99.90
1578;DHT22;57623;53.608;10.004;2023-07-13T00:06:01;16.40;99.90
1578;DHT22;57623;53.608;10.004;2023-07-13T00:08:31;16.30;99.90
1578;DHT22;57623;53.608;10.004;2023-07-13T00:11:02;16.30;99.90
1578;DHT22;57623;53.608;10.004;2023-07-13T00:13:30;16.30;99.90
1578;DHT22;57623;53.608;10.004;2023-07-13T00:15:58;16.30;99.90
1578;DHT22;57623;53.608;10.004;2023-07-13T00:18:27;16.30;99.90
1578;DHT22;57623;53.608;10.004;2023-07-13T00:20:57;16.20;99.90
1578;DHT22;57623;53.608;10.004;2023-07-13T00:23:32;16.20;99.90
1578;DHT22;57623;53.608;10.004;2023-07-13T00:26:02;16.10;99.90
1578;DHT22;57623;53.608;10.004;2023-07-13T00:28:30;16.10;99.90
1578;DHT22;57623;53.608;10.004;2023-07-13T00:30:58;16.10;99.90
1578;DHT22;57623;53.608;10.004;2023-07-13T00:33:27;16.10;99.90
1578;DHT22;57623;53.608;10.004;2023-07-13T00:35:56;16.10;99.90
1578;DHT22;57623;53.608;10.004;2023-07-13T00:38:24;16.10;99.90
1578;DHT22;57623;53.608;10.004;2023-07-13T00:40:52;16.00;99.90
1578;DHT22;57623;53.608;10.004;2023-07-13T00:43:23;16.00;99.90
1578;DHT22;57623;53.608;10.004;2023-07-13T00:46:20;15.90;99.90
1578;DHT22;57623;53.608;10.004;2023-07-13T00:48:50;15.90;99.90
1578;DHT22;57623;53.608;10.004;2023-07-13T00:51:25;15.90;99.90
1578;DHT22;57623;53.608;10.004;2023-07-13T00:53:57;15.90;99.90
1578;DHT22;57623;53.608;10.004;2023-07-13T00:56:26;15.80;99.90
1578;DHT22;57623;53.608;10.004;2023-07-13T00:58:57;15.80;99.90
1578;DHT22;57623;53.608;10.004;2023-07-13T01:01:27;15.80;99.90
1578;DHT22;57623;53.608;10.004;2023-07-13T01:03:55;15.80;99.90
1578;DHT22;57623;53.608;10.004;2023-07-13T01:06:23;15.80;99.90
1578;DHT22;57623;53.608;10.004;2023-07-13T01:08:52;15.70;99.90
1578;DHT22;57623;53.608;10.004;2023-07-13T01:11:21;15.70;99.90
1578;DHT22;57623;53.608;10.004;2023-07-13T01:13:49;15.70;99.90
1578;DHT22;57623;53.608;10.004;2023-07-13T01:16:25;15.60;99.90
1578;DHT22;57623;53.608;10.004;2023-07-13T01:18:53;15.60;99.90
1578;DHT22;57623;53.608;10.004;2023-07-13T01:21:26;15.60;99.90
1578;DHT22;57623;53.608;10.004;2023-07-13T01:23:54;15.60;99.90
1578;DHT22;57623;53.608;10.004;2023-07-13T01:26:22;15.60;99.90
1578;DHT22;57623;53.608;10.004;2023-07-13T01:28:50;15.60;99.90
1578;DHT22;57623;53.608;10.004;2023-07-13T01:31:18;15.60;99.90
1578;DHT22;57623;53.608;10.004;2023-07-13T01:33:46;15.60;99.90
1578;DHT22;57623;53.608;10.004;2023-07-13T01:36:14;15.60;99.90
1578;DHT22;57623;53.608;10.004;2023-07-13T01:38:43;15.60;99.90
1578;DHT22;57623;53.608;10.004;2023-07-13T01:41:11;15.50;99.90
1578;DHT22;57623;53.608;10.004;2023-07-13T01:43:39;15.60;99.90
1578;DHT22;57623;53.608;10.004;2023-07-13T01:46:07;15.60;99.90
1578;DHT22;57623;53.608;10.004;2023-07-13T01:48:42;15.60;99.90
1578;DHT22;57623;53.608;10.004;2023-07-13T01:51:10;15.60;99.90
1578;DHT22;57623;53.608;10.004;2023-07-13T01:53:38;15.60;99.90
1578;DHT22;57623;53.608;10.004;2023-07-13T01:56:08;15.60;99.90
1578;DHT22;57623;53.608;10.004;2023-07-13T01:58:37;15.70;99.90
1578;DHT22;57623;53.608;10.004;2023-07-13T02:01:05;15.70;99.90
1578;DHT22;57623;53.608;10.004;2023-07-13T02:03:33;15.70;99.90
1578;DHT22;57623;53.608;10.004;2023-07-13T02:06:01;15.70;99.90
1578;DHT22;57623;53.608;10.004;2023-07-13T02:08:30;15.70;99.90
1578;DHT22;57623;53.608;10.004;2023-07-13T02:10:58;15.60;99.90
1578;DHT22;57623;53.608;10.004;2023-07-13T02:13:27;15.60;99.90
1578;DHT22;57623;53.608;10.004;2023-07-13T02:15:55;15.50;99.90
1578;DHT22;57623;53.608;10.004;2023-07-13T02:18:23;15.50;99.90
1578;DHT22;57623;53.608;10.004;2023-07-13T02:20:51;15.50;99.90
1578;DHT22;57623;53.608;10.004;2023-07-13T02:23:19;15.50;99.90
1578;DHT22;57623;53.608;10.004;2023-07-13T02:25:47;15.50;99.90
1578;DHT22;57623;53.608;10.004;2023-07-13T02:28:16;15.40;99.90
1578;DHT22;57623;53.608;10.004;2023-07-13T02:30:45;15.40;99.90
1578;DHT22;57623;53.608;10.004;2023-07-13T02:33:13;15.40;99.90
1578;DHT22;57623;53.608;10.004;2023-07-13T02:35:41;15.40;99.90
1578;DHT22;57623;53.608;10.004;2023-07-13T02:38:09;15.40;99.90
1578;DHT22;57623;53.608;10.004;2023-07-13T02:40:37;15.40;99.90
1578;DHT22;57623;53.608;10.004;2023-07-13T02:43:05;15.40;99.90
1578;DHT22;57623;53.608;10.004;2023-07-13T02:45:33;15.40;99.90
1578;DHT22;57623;53.608;10.004;2023-07-13T02:48:03;15.30;99.90
1578;DHT22;57623;53.608;10.004;2023-07-13T02:50:31;15.30;99.90
1578;DHT22;57623;53.608;10.004;2023-07-13T02:52:59;15.30;99.90
1578;DHT22;57623;53.608;10.004;2023-07-13T02:55:27;15.30;99.90
1578;DHT22;57623;53.608;10.004;2023-07-13T02:57:55;15.30;99.90
1578;DHT22;57623;53.608;10.004;2023-07-13T03:00:23;15.20;99.90
1578;DHT22;57623;53.608;10.004;2023-07-13T03:02:51;15.20;99.90
1578;DHT22;57623;53.608;10.004;2023-07-13T03:05:21;15.30;99.90
1578;DHT22;57623;53.608;10.004;2023-07-13T03:07:49;15.20;99.90
1578;DHT22;57623;53.608;10.004;2023-07-13T03:10:17;15.20;99.90
1578;DHT22;57623;53.608;10.004;2023-07-13T03:12:45;15.20;99.90
1578;DHT22;57623;53.608;10.004;2023-07-13T03:15:13;15.20;99.90
1578;DHT22;57623;53.608;10.004;2023-07-13T03:17:41;15.20;99.90
1578;DHT22;57623;53.608;10.004;2023-07-13T03:20:09;15.20;99.90
1578;DHT22;57623;53.608;10.004;2023-07-13T03:22:40;15.20;99.90
1578;DHT22;57623;53.608;10.004;2023-07-13T03:25:08;15.20;99.90
1578;DHT22;57623;53.608;10.004;2023-07-13T03:27:37;15.20;99.90
1578;DHT22;57623;53.608;10.004;2023-07-13T03:30:06;15.20;99.90
1578;DHT22;57623;53.608;10.004;2023-07-13T03:32:34;15.20;99.90
1578;DHT22;57623;53.608;10.004;2023-07-13T03:35:02;15.20;99.90
1578;DHT22;57623;53.608;10.004;2023-07-13T03:37:30;15.20;99.90
1578;DHT22;57623;53.608;10.004;2023-07-13T03:40:00;15.20;99.90
1578;DHT22;57623;53.608;10.004;2023-07-13T03:42:28;15.20;99.90
1578;DHT22;57623;53.608;10.004;2023-07-13T03:44:56;15.20;99.90
1578;DHT22;57623;53.608;10.004;2023-07-13T03:47:24;15.20;99.90
1578;DHT22;57623;53.608;10.004;2023-07-13T03:49:52;15.20;99.90
1578;DHT22;57623;53.608;10.004;2023-07-13T03:52:20;15.20;99.90
1578;DHT22;57623;53.608;10.004;2023-07-13T03:54:48;15.20;99.90
1578;DHT22;57623;53.608;10.004;2023-07-13T03:57:18;15.20;99.90
1578;DHT22;57623;53.608;10.004;2023-07-13T03:59:46;15.20;99.90
1578;DHT22;57623;53.608;10.004;2023-07-13T04:02:14;15.20;99.90
1578;DHT22;57623;53.608;10.004;2023-07-13T04:04:42;15.20;99.90
1578;DHT22;57623;53.608;10.004;2023-07-13T04:07:10;15.20;99.90
1578;DHT22;57623;53.608;10.004;2023-07-13T04:09:39;15.20;99.90
1578;DHT22;57623;53.608;10.004;2023-07-13T04:12:07;15.20;99.90
1578;DHT22;57623;53.608;10.004;2023-07-13T04:14:37;15.20;99.90
1578;DHT22;57623;53.608;10.004;2023-07-13T04:17:05;15.30;99.90
1578;DHT22;57623;53.608;10.004;2023-07-13T04:19:34;15.30;99.90
1578;DHT22;57623;53.608;10.004;2023-07-13T04:22:02;15.30;99.90
1578;DHT22;57623;53.608;10.004;2023-07-13T04:24:30;15.30;99.90
1578;DHT22;57623;53.608;10.004;2023-07-13T04:26:58;15.30;99.90
1578;DHT22;57623;53.608;10.004;2023-07-13T04:29:27;15.30;99.90
1578;DHT22;57623;53.608;10.004;2023-07-13T04:31:56;15.30;99.90
1578;DHT22;57623;53.608;10.004;2023-07-13T04:34:24;15.30;99.90
1578;DHT22;57623;53.608;10.004;2023-07-13T04:36:52;15.20;99.90
1578;DHT22;57623;53.608;10.004;2023-07-13T04:39:20;15.20;99.90
1578;DHT22;57623;53.608;10.004;2023-07-13T04:41:48;15.20;99.90
1578;DHT22;57623;53.608;10.004;2023-07-13T04:44:16;15.30;99.90
1578;DHT22;57623;53.608;10.004;2023-07-13T04:46:44;15.40;99.90
1578;DHT22;57623;53.608;10.004;2023-07-13T04:49:14;15.40;99.90
1578;DHT22;57623;53.608;10.004;2023-07-13T04:51:42;15.50;99.90
1578;DHT22;57623;53.608;10.004;2023-07-13T04:54:10;15.50;99.90
1578;DHT22;57623;53.608;10.004;2023-07-13T04:56:38;15.60;99.90
1578;DHT22;57623;53.608;10.004;2023-07-13T04:59:06;15.60;99.90
1578;DHT22;57623;53.608;10.004;2023-07-13T05:01:33;15.70;99.90
1578;DHT22;57623;53.608;10.004;2023-07-13T05:04:01;15.70;99.90
1578;DHT22;57623;53.608;10.004;2023-07-13T05:06:31;15.80;99.90
1578;DHT22;57623;53.608;10.004;2023-07-13T05:08:59;15.70;99.90
1578;DHT22;57623;53.608;10.004;2023-07-13T05:11:27;15.80;99.90
1578;DHT22;57623;53.608;10.004;2023-07-13T05:13:55;15.80;99.90
1578;DHT22;57623;53.608;10.004;2023-07-13T05:16:23;15.90;99.90
1578;DHT22;57623;53.608;10.004;2023-07-13T05:18:51;15.90;99.90
1578;DHT22;57623;53.608;10.004;2023-07-13T05:21:19;16.00;99.90
1578;DHT22;57623;53.608;10.004;2023-07-13T05:23:49;16.10;99.90
1578;DHT22;57623;53.608;10.004;2023-07-13T05:26:17;16.20;99.90
1578;DHT22;57623;53.608;10.004;2023-07-13T05:28:47;16.20;99.90
1578;DHT22;57623;53.608;10.004;2023-07-13T05:31:15;16.30;99.90
1578;DHT22;57623;53.608;10.004;2023-07-13T05:33:43;16.40;99.90
1578;DHT22;57623;53.608;10.004;2023-07-13T05:36:11;16.50;99.90
1578;DHT22;57623;53.608;10.004;2023-07-13T05:38:39;16.60;99.90
1578;DHT22;57623;53.608;10.004;2023-07-13T05:41:08;16.70;99.90
1578;DHT22;57623;53.608;10.004;2023-07-13T05:43:37;16.70;99.90
1578;DHT22;57623;53.608;10.004;2023-07-13T05:46:05;16.60;99.90
1578;DHT22;57623;53.608;10.004;2023-07-13T05:48:33;16.70;99.90
1578;DHT22;57623;53.608;10.004;2023-07-13T05:51:01;16.60;99.90
1578;DHT22;57623;53.608;10.004;2023-07-13T05:53:29;16.60;99.90
1578;DHT22;57623;53.608;10.004;2023-07-13T05:55:57;16.50;99.90
1578;DHT22;57623;53.608;10.004;2023-07-13T05:58:30;16.50;99.90
1578;DHT22;57623;53.608;10.004;2023-07-13T06:01:00;16.60;99.90
1578;DHT22;57623;53.608;10.004;2023-07-13T06:03:28;16.60;99.90
1578;DHT22;57623;53.608;10.004;2023-07-13T06:05:56;16.70;99.90
1578;DHT22;57623;53.608;10.004;2023-07-13T06:08:27;16.80;99.90
1578;DHT22;57623;53.608;10.004;2023-07-13T06:11:02;16.80;99.90
1578;DHT22;57623;53.608;10.004;2023-07-13T06:13:31;16.80;99.90
1578;DHT22;57623;53.608;10.004;2023-07-13T06:16:00;16.80;99.90
1578;DHT22;57623;53.608;10.004;2023-07-13T06:18:31;16.80;99.90
1578;DHT22;57623;53.608;10.004;2023-07-13T06:20:59;16.80;99.90
1578;DHT22;57623;53.608;10.004;2023-07-13T06:23:27;16.80;99.90
1578;DHT22;57623;53.608;10.004;2023-07-13T06:25:55;16.80;99.90
1578;DHT22;57623;53.608;10.004;2023-07-13T06:28:23;16.80;99.90
1578;DHT22;57623;53.608;10.004;2023-07-13T06:30:52;16.80;99.90
1578;DHT22;57623;53.608;10.004;2023-07-13T06:33:20;16.80;99.90
1578;DHT22;57623;53.608;10.004;2023-07-13T06:35:48;16.80;99.90
1578;DHT22;57623;53.608;10.004;2023-07-13T06:38:16;16.90;99.90
1578;DHT22;57623;53.608;10.004;2023-07-13T06:40:44;16.90;99.90
1578;DHT22;57623;53.608;10.004;2023-07-13T06:43:12;16.90;99.90
1578;DHT22;57623;53.608;10.004;2023-07-13T06:45:43;16.90;99.90
1578;DHT22;57623;53.608;10.004;2023-07-13T06:48:13;17.00;99.90
1578;DHT22;57623;53.608;10.004;2023-07-13T06:50:42;17.00;99.90
1578;DHT22;57623;53.608;10.004;2023-07-13T06:53:11;17.10;99.90
1578;DHT22;57623;53.608;10.004;2023-07-13T06:55:40;17.20;99.90
1578;DHT22;57623;53.608;10.004;2023-07-13T06:58:08;17.20;99.90
1578;DHT22;57623;53.608;10.004;2023-07-13T07:00:36;17.30;99.90
1578;DHT22;57623;53.608;10.004;2023-07-13T07:03:04;17.30;99.90
1578;DHT22;57623;53.608;10.004;2023-07-13T07:05:34;17.30;99.90
1578;DHT22;57623;53.608;10.004;2023-07-13T07:08:02;17.20;99.90
1578;DHT22;57623;53.608;10.004;2023-07-13T07:10:30;17.20;99.90
1578;DHT22;57623;53.608;10.004;2023-07-13T07:12:59;17.20;99.90
1578;DHT22;57623;53.608;10.004;2023-07-13T07:15:27;17.30;99.90
1578;DHT22;57623;53.608;10.004;2023-07-13T07:17:55;17.30;99.90
1578;DHT22;57623;53.608;10.004;2023-07-13T07:20:23;17.40;99.90
1578;DHT22;57623;53.608;10.004;2023-07-13T07:22:52;17.50;99.90
1578;DHT22;57623;53.608;10.004;2023-07-13T07:25:20;17.50;99.90
1578;DHT22;57623;53.608;10.004;2023-07-13T07:27:48;17.50;99.90
1578;DHT22;57623;53.608;10.004;2023-07-13T07:30:19;17.60;99.90
1578;DHT22;57623;53.608;10.004;2023-07-13T07:32:50;17.60;99.90
1578;DHT22;57623;53.608;10.004;2023-07-13T07:35:23;17.60;99.90
1578;DHT22;57623;53.608;10.004;2023-07-13T07:37:52;17.60;99.90
1578;DHT22;57623;53.608;10.004;2023-07-13T07:40:21;17.70;99.90
1578;DHT22;57623;53.608;10.004;2023-07-13T07:42:52;17.90;99.90
1578;DHT22;57623;53.608;10.004;2023-07-13T07:45:20;18.00;99.90
1578;DHT22;57623;53.608;10.004;2023-07-13T07:47:48;18.00;99.90
1578;DHT22;57623;53.608;10.004;2023-07-13T07:50:17;18.10;99.90
1578;DHT22;57623;53.608;10.004;2023-07-13T07:52:46;18.20;99.90
1578;DHT22;57623;53.608;10.004;2023-07-13T07:55:16;18.30;99.90
1578;DHT22;57623;53.608;10.004;2023-07-13T07:57:47;18.40;99.90
1578;DHT22;57623;53.608;10.004;2023-07-13T08:00:18;18.40;99.90
1578;DHT22;57623;53.608;10.004;2023-07-13T08:02:49;18.50;99.90
1578;DHT22;57623;53.608;10.004;2023-07-13T08:05:20;18.60;99.90
1578;DHT22;57623;53.608;10.004;2023-07-13T08:08:08;18.70;99.90
1578;DHT22;57623;53.608;10.004;2023-07-13T08:10:37;18.80;99.90
1578;DHT22;57623;53.608;10.004;2023-07-13T08:13:05;18.90;99.90
1578;DHT22;57623;53.608;10.004;2023-07-13T08:15:37;18.90;99.90
1578;DHT22;57623;53.608;10.004;2023-07-13T08:18:05;19.00;99.90
1578;DHT22;57623;53.608;10.004;2023-07-13T08:20:37;19.10;99.90
1578;DHT22;57623;53.608;10.004;2023-07-13T08:23:05;19.20;99.90
1578;DHT22;57623;53.608;10.004;2023-07-13T08:25:33;19.30;99.90
1578;DHT22;57623;53.608;10.004;2023-07-13T08:28:04;19.40;99.90
1578;DHT22;57623;53.608;10.004;2023-07-13T08:30:32;19.50;99.90
1578;DHT22;57623;53.608;10.004;2023-07-13T08:33:00;19.70;99.90
1578;DHT22;57623;53.608;10.004;2023-07-13T08:35:28;19.80;99.90
1578;DHT22;57623;53.608;10.004;2023-07-13T08:37:56;19.90;99.90
1578;DHT22;57623;53.608;10.004;2023-07-13T08:40:26;19.80;99.90
1578;DHT22;57623;53.608;10.004;2023-07-13T08:42:58;19.70;99.90
1578;DHT22;57623;53.608;10.004;2023-07-13T08:45:33;19.70;99.90
1578;DHT22;57623;53.608;10.004;2023-07-13T08:48:11;19.60;99.90
1578;DHT22;57623;53.608;10.004;2023-07-13T08:50:48;19.70;99.90
1578;DHT22;57623;53.608;10.004;2023-07-13T08:53:33;19.60;99.90
1578;DHT22;57623;53.608;10.004;2023-07-13T08:56:02;19.60;99.90
1578;DHT22;57623;53.608;10.004;2023-07-13T08:58:32;19.60;99.90
1578;DHT22;57623;53.608;10.004;2023-07-13T09:01:09;19.60;99.90
1578;DHT22;57623;53.608;10.004;2023-07-13T09:03:45;19.60;99.90
1578;DHT22;57623;53.608;10.004;2023-07-13T09:06:14;19.60;99.90
1578;DHT22;57623;53.608;10.004;2023-07-13T09:08:51;19.60;99.90
1578;DHT22;57623;53.608;10.004;2023-07-13T09:11:34;19.60;99.90
1578;DHT22;57623;53.608;10.004;2023-07-13T09:14:17;19.70;99.90
1578;DHT22;57623;53.608;10.004;2023-07-13T09:16:49;19.90;99.90
1578;DHT22;57623;53.608;10.004;2023-07-13T09:19:22;20.10;99.90
1578;DHT22;57623;53.608;10.004;2023-07-13T09:21:52;20.20;99.90
1578;DHT22;57623;53.608;10.004;2023-07-13T09:24:29;20.10;99.90
1578;DHT22;57623;53.608;10.004;2023-07-13T09:27:12;20.20;99.90
1578;DHT22;57623;53.608;10.004;2023-07-13T09:29:47;20.20;99.90
1578;DHT22;57623;53.608;10.004;2023-07-13T09:32:21;20.30;99.90
1578;DHT22;57623;53.608;10.004;2023-07-13T09:34:52;20.30;99.90
1578;DHT22;57623;53.608;10.004;2023-07-13T09:37:21;20.30;99.90
1578;DHT22;57623;53.608;10.004;2023-07-13T09:39:52;20.30;99.90
1578;DHT22;57623;53.608;10.004;2023-07-13T09:42:22;20.30;99.90
1578;DHT22;57623;53.608;10.004;2023-07-13T09:44:54;20.30;99.90
1578;DHT22;57623;53.608;10.004;2023-07-13T09:47:25;20.40;99.90
1578;DHT22;57623;53.608;10.004;2023-07-13T09:49:55;20.50;99.90
1578;DHT22;57623;53.608;10.004;2023-07-13T09:52:40;20.60;99.90
1578;DHT22;57623;53.608;10.004;2023-07-13T09:55:24;20.50;99.90
1578;DHT22;57623;53.608;10.004;2023-07-13T09:57:53;20.60;99.90
1578;DHT22;57623;53.608;10.004;2023-07-13T10:00:23;20.70;99.90
1578;DHT22;57623;53.608;10.004;2023-07-13T10:03:05;20.90;99.90
1578;DHT22;57623;53.608;10.004;2023-07-13T10:05:38;21.00;99.90
1578;DHT22;57623;53.608;10.004;2023-07-13T10:08:16;21.10;99.90
1578;DHT22;57623;53.608;10.004;2023-07-13T10:10:45;21.20;99.90
1578;DHT22;57623;53.608;10.004;2023-07-13T10:13:28;21.30;99.90
1578;DHT22;57623;53.608;10.004;2023-07-13T10:15:59;21.40;99.90
1578;DHT22;57623;53.608;10.004;2023-07-13T10:18:29;21.40;99.90
1578;DHT22;57623;53.608;10.004;2023-07-13T10:21:11;21.30;99.90
1578;DHT22;57623;53.608;10.004;2023-07-13T10:23:50;21.30;99.90
1578;DHT22;57623;53.608;10.004;2023-07-13T10:26:22;21.40;99.90
1578;DHT22;57623;53.608;10.004;2023-07-13T10:28:53;21.40;99.90
1578;DHT22;57623;53.608;10.004;2023-07-13T10:31:23;21.50;99.90
1578;DHT22;57623;53.608;10.004;2023-07-13T10:33:53;21.60;99.90
1578;DHT22;57623;53.608;10.004;2023-07-13T10:36:28;21.60;99.90
1578;DHT22;57623;53.608;10.004;2023-07-13T10:39:01;21.50;99.90
1578;DHT22;57623;53.608;10.004;2023-07-13T10:41:32;21.60;99.90
1578;DHT22;57623;53.608;10.004;2023-07-13T10:44:02;21.70;99.90
1578;DHT22;57623;53.608;10.004;2023-07-13T10:46:31;21.90;99.90
1578;DHT22;57623;53.608;10.004;2023-07-13T10:49:04;22.00;99.90
1578;DHT22;57623;53.608;10.004;2023-07-13T10:51:33;22.10;99.90
1578;DHT22;57623;53.608;10.004;2023-07-13T10:54:15;22.20;99.90
1578;DHT22;57623;53.608;10.004;2023-07-13T10:56:49;22.20;99.90
1578;DHT22;57623;53.608;10.004;2023-07-13T10:59:20;22.30;99.90
1578;DHT22;57623;53.608;10.004;2023-07-13T11:01:58;22.30;99.90
1578;DHT22;57623;53.608;10.004;2023-07-13T11:04:31;22.30;99.90
1578;DHT22;57623;53.608;10.004;2023-07-13T11:07:11;22.30;99.90
1578;DHT22;57623;53.608;10.004;2023-07-13T11:09:50;22.50;99.90
1578;DHT22;57623;53.608;10.004;2023-07-13T11:12:50;22.50;99.90
1578;DHT22;57623;53.608;10.004;2023-07-13T11:15:31;22.60;99.90
1578;DHT22;57623;53.608;10.004;2023-07-13T11:18:04;22.40;99.90
1578;DHT22;57623;53.608;10.004;2023-07-13T11:20:39;22.30;99.90
1578;DHT22;57623;53.608;10.004;2023-07-13T11:23:19;22.40;99.90
1578;DHT22;57623;53.608;10.004;2023-07-13T11:25:47;22.60;99.90
1578;DHT22;57623;53.608;10.004;2023-07-13T11:28:18;22.50;99.90
1578;DHT22;57623;53.608;10.004;2023-07-13T11:31:00;22.60;99.90
1578;DHT22;57623;53.608;10.004;2023-07-13T11:33:49;22.60;99.90
1578;DHT22;57623;53.608;10.004;2023-07-13T11:36:21;22.60;99.90
1578;DHT22;57623;53.608;10.004;2023-07-13T11:38:57;22.50;99.90
1578;DHT22;57623;53.608;10.004;2023-07-13T11:41:30;22.50;99.90
1578;DHT22;57623;53.608;10.004;2023-07-13T11:44:06;22.50;99.90
1578;DHT22;57623;53.608;10.004;2023-07-13T11:46:35;22.60;99.90
1578;DHT22;57623;53.608;10.004;2023-07-13T11:49:05;22.60;99.90
1578;DHT22;57623;53.608;10.004;2023-07-13T11:51:36;22.70;99.90
1578;DHT22;57623;53.608;10.004;2023-07-13T11:54:10;22.70;99.90
1578;DHT22;57623;53.608;10.004;2023-07-13T11:56:42;22.70;99.90
1578;DHT22;57623;53.608;10.004;2023-07-13T11:59:12;22.60;99.90
1578;DHT22;57623;53.608;10.004;2023-07-13T12:01:44;22.50;99.90
1578;DHT22;57623;53.608;10.004;2023-07-13T12:04:22;22.40;99.90
1578;DHT22;57623;53.608;10.004;2023-07-13T12:06:57;22.20;99.90
1578;DHT22;57623;53.608;10.004;2023-07-13T12:09:27;22.20;99.90
1578;DHT22;57623;53.608;10.004;2023-07-13T12:11:57;22.20;99.90
1578;DHT22;57623;53.608;10.004;2023-07-13T12:14:27;22.10;99.90
1578;DHT22;57623;53.608;10.004;2023-07-13T12:16:56;22.10;99.90
1578;DHT22;57623;53.608;10.004;2023-07-13T12:19:26;22.00;99.90
1578;DHT22;57623;53.608;10.004;2023-07-13T12:21:57;21.80;99.90
1578;DHT22;57623;53.608;10.004;2023-07-13T12:24:26;20.90;99.90
1578;DHT22;57623;53.608;10.004;2023-07-13T12:26:59;20.40;99.90
1578;DHT22;57623;53.608;10.004;2023-07-13T12:29:28;19.90;99.90
1578;DHT22;57623;53.608;10.004;2023-07-13T12:31:56;19.60;99.90
1578;DHT22;57623;53.608;10.004;2023-07-13T12:34:25;19.30;99.90
1578;DHT22;57623;53.608;10.004;2023-07-13T12:36:55;18.90;99.90
1578;DHT22;57623;53.608;10.004;2023-07-13T12:39:33;18.60;99.90
1578;DHT22;57623;53.608;10.004;2023-07-13T12:42:19;18.50;99.90
1578;DHT22;57623;53.608;10.004;2023-07-13T12:44:52;18.40;99.90
1578;DHT22;57623;53.608;10.004;2023-07-13T12:47:20;18.40;99.90
1578;DHT22;57623;53.608;10.004;2023-07-13T12:49:50;18.50;99.90
1578;DHT22;57623;53.608;10.004;2023-07-13T12:52:23;18.70;99.90
1578;DHT22;57623;53.608;10.004;2023-07-13T12:54:57;19.00;99.90
1578;DHT22;57623;53.608;10.004;2023-07-13T12:57:38;19.30;99.90
1578;DHT22;57623;53.608;10.004;2023-07-13T13:00:22;19.60;99.90
1578;DHT22;57623;53.608;10.004;2023-07-13T13:02:52;19.90;99.90
1578;DHT22;57623;53.608;10.004;2023-07-13T13:05:34;20.10;99.90
1578;DHT22;57623;53.608;10.004;2023-07-13T13:08:04;20.10;99.90
1578;DHT22;57623;53.608;10.004;2023-07-13T13:10:34;20.00;99.90
1578;DHT22;57623;53.608;10.004;2023-07-13T13:13:02;19.90;99.90
1578;DHT22;57623;53.608;10.004;2023-07-13T13:15:31;19.80;99.90
1578;DHT22;57623;53.608;10.004;2023-07-13T13:17:59;19.60;99.90
1578;DHT22;57623;53.608;10.004;2023-07-13T13:20:27;19.60;99.90
1578;DHT22;57623;53.608;10.004;2023-07-13T13:22:55;19.60;99.90
1578;DHT22;57623;53.608;10.004;2023-07-13T13:25:23;19.60;99.90
1578;DHT22;57623;53.608;10.004;2023-07-13T13:27:53;19.70;99.90
1578;DHT22;57623;53.608;10.004;2023-07-13T13:30:21;19.80;99.90
1578;DHT22;57623;53.608;10.004;2023-07-13T13:32:49;19.90;99.90
1578;DHT22;57623;53.608;10.004;2023-07-13T13:35:19;20.00;99.90
1578;DHT22;57623;53.608;10.004;2023-07-13T13:37:48;20.00;99.90
1578;DHT22;57623;53.608;10.004;2023-07-13T13:40:19;19.90;99.90
1578;DHT22;57623;53.608;10.004;2023-07-13T13:42:47;19.90;99.90
1578;DHT22;57623;53.608;10.004;2023-07-13T13:45:17;19.80;99.90
1578;DHT22;57623;53.608;10.004;2023-07-13T13:47:47;19.80;99.90
1578;DHT22;57623;53.608;10.004;2023-07-13T13:50:18;19.80;99.90
1578;DHT22;57623;53.608;10.004;2023-07-13T13:52:47;19.90;99.90
1578;DHT22;57623;53.608;10.004;2023-07-13T13:55:17;20.00;99.90
1578;DHT22;57623;53.608;10.004;2023-07-13T13:57:46;20.10;99.90
1578;DHT22;57623;53.608;10.004;2023-07-13T14:00:17;20.10;99.90
1578;DHT22;57623;53.608;10.004;2023-07-13T14:02:47;20.00;99.90
1578;DHT22;57623;53.608;10.004;2023-07-13T14:05:24;19.90;99.90
1578;DHT22;57623;53.608;10.004;2023-07-13T14:07:52;19.80;99.90
1578;DHT22;57623;53.608;10.004;2023-07-13T14:10:20;19.70;99.90
1578;DHT22;57623;53.608;10.004;2023-07-13T14:12:54;19.90;99.90
1578;DHT22;57623;53.608;10.004;2023-07-13T14:15:26;20.10;99.90
1578;DHT22;57623;53.608;10.004;2023-07-13T14:17:55;20.40;99.90
1578;DHT22;57623;53.608;10.004;2023-07-13T14:20:25;20.80;99.90
1578;DHT22;57623;53.608;10.004;2023-07-13T14:22:53;21.00;99.90
1578;DHT22;57623;53.608;10.004;2023-07-13T14:25:22;21.00;99.90
1578;DHT22;57623;53.608;10.004;2023-07-13T14:27:54;20.80;99.90
1578;DHT22;57623;53.608;10.004;2023-07-13T14:30:26;20.60;99.90
1578;DHT22;57623;53.608;10.004;2023-07-13T14:32:54;20.40;99.90
1578;DHT22;57623;53.608;10.004;2023-07-13T14:35:22;20.30;99.90
1578;DHT22;57623;53.608;10.004;2023-07-13T14:37:51;20.50;99.90
1578;DHT22;57623;53.608;10.004;2023-07-13T14:40:23;20.70;99.90
1578;DHT22;57623;53.608;10.004;2023-07-13T14:42:52;21.00;99.90
1578;DHT22;57623;53.608;10.004;2023-07-13T14:45:21;21.20;99.90
1578;DHT22;57623;53.608;10.004;2023-07-13T14:47:50;21.10;99.90
1578;DHT22;57623;53.608;10.004;2023-07-13T14:50:30;20.90;99.90
1578;DHT22;57623;53.608;10.004;2023-07-13T14:52:58;20.80;99.90
1578;DHT22;57623;53.608;10.004;2023-07-13T14:55:26;20.70;99.90
1578;DHT22;57623;53.608;10.004;2023-07-13T14:57:54;20.60;99.90
1578;DHT22;57623;53.608;10.004;2023-07-13T15:00:24;20.60;99.90
1578;DHT22;57623;53.608;10.004;2023-07-13T15:02:56;20.50;99.90
1578;DHT22;57623;53.608;10.004;2023-07-13T15:05:26;20.50;99.90
1578;DHT22;57623;53.608;10.004;2023-07-13T15:07:57;20.60;99.90
1578;DHT22;57623;53.608;10.004;2023-07-13T15:10:28;20.60;99.90
1578;DHT22;57623;53.608;10.004;2023-07-13T15:12:59;20.60;99.90
1578;DHT22;57623;53.608;10.004;2023-07-13T15:15:30;20.70;99.90
1578;DHT22;57623;53.608;10.004;2023-07-13T15:18:00;21.00;99.90
1578;DHT22;57623;53.608;10.004;2023-07-13T15:20:32;21.30;99.90
1578;DHT22;57623;53.608;10.004;2023-07-13T15:23:02;21.30;99.90
1578;DHT22;57623;53.608;10.004;2023-07-13T15:25:32;21.20;99.90
1578;DHT22;57623;53.608;10.004;2023-07-13T15:28:01;21.10;99.90
1578;DHT22;57623;53.608;10.004;2023-07-13T15:30:31;21.00;99.90
1578;DHT22;57623;53.608;10.004;2023-07-13T15:33:10;21.00;99.90
1578;DHT22;57623;53.608;10.004;2023-07-13T15:35:39;20.90;99.90
1578;DHT22;57623;53.608;10.004;2023-07-13T15:38:16;20.90;99.90
1578;DHT22;57623;53.608;10.004;2023-07-13T15:40:44;20.80;99.90
1578;DHT22;57623;53.608;10.004;2023-07-13T15:43:14;20.90;99.90
1578;DHT22;57623;53.608;10.004;2023-07-13T15:45:43;20.90;99.90
1578;DHT22;57623;53.608;10.004;2023-07-13T15:48:16;21.00;99.90
1578;DHT22;57623;53.608;10.004;2023-07-13T15:50:46;21.30;99.90